sensor_id;sensor_type;location;lat;lon;timestamp;P1;durP1;ratioP1;P2;durP2;ratioP2
12296;SDS011;6211;49.124;9.152;2023-08-20T00:01:23;8.00;;;7.18;;
12296;SDS011;6211;49.124;9.152;2023-08-20T00:03:51;7.88;;;7.07;;
12296;SDS011;6211;49.124;9.152;2023-08-20T00:06:18;10.43;;;6.65;;
12296;SDS011;6211;49.124;9.152;2023-08-20T00:08:46;8.77;;;6.80;;
12296;SDS011;6211;49.124;9.152;2023-08-20T00:11:13;7.93;;;7.13;;
12296;SDS011;6211;49.124;9.152;2023-08-20T00:13:40;8.02;;;7.03;;
12296;SDS011;6211;49.124;9.152;2023-08-20T00:16:08;10.13;;;6.57;;
12296;SDS011;6211;49.124;9.152;2023-08-20T00:18:37;8.15;;;6.55;;
12296;SDS011;6211;49.124;9.152;2023-08-20T00:21:04;8.77;;;6.78;;
12296;SDS011;6211;49.124;9.152;2023-08-20T00:23:32;9.48;;;7.03;;
12296;SDS011;6211;49.124;9.152;2023-08-20T00:25:59;7.38;;;6.63;;
12296;SDS011;6211;49.124;9.152;2023-08-20T00:28:27;7.70;;;6.72;;
12296;SDS011;6211;49.124;9.152;2023-08-20T00:30:54;7.93;;;6.63;;
12296;SDS011;6211;49.124;9.152;2023-08-20T00:33:21;7.88;;;6.90;;
12296;SDS011;6211;49.124;9.152;2023-08-20T00:35:49;8.20;;;7.32;;
12296;SDS011;6211;49.124;9.152;2023-08-20T00:38:17;9.93;;;7.57;;
12296;SDS011;6211;49.124;9.152;2023-08-20T00:40:44;10.15;;;8.32;;
12296;SDS011;6211;49.124;9.152;2023-08-20T00:43:11;11.20;;;8.20;;
12296;SDS011;6211;49.124;9.152;2023-08-20T00:45:38;8.68;;;7.78;;
12296;SDS011;6211;49.124;9.152;2023-08-20T00:48:07;8.82;;;6.93;;
12296;SDS011;6211;49.124;9.152;2023-08-20T00:50:35;10.32;;;7.68;;
12296;SDS011;6211;49.124;9.152;2023-08-20T00:53:03;8.18;;;7.13;;
12296;SDS011;6211;49.124;9.152;2023-08-20T00:55:31;9.88;;;7.50;;
12296;SDS011;6211;49.124;9.152;2023-08-20T00:57:58;10.93;;;7.75;;
12296;SDS011;6211;49.124;9.152;2023-08-20T01:00:25;7.97;;;7.18;;
12296;SDS011;6211;49.124;9.152;2023-08-20T01:02:52;9.20;;;7.75;;
12296;SDS011;6211;49.124;9.152;2023-08-20T01:05:19;8.23;;;6.90;;
12296;SDS011;6211;49.124;9.152;2023-08-20T01:07:55;10.20;;;7.72;;
12296;SDS011;6211;49.124;9.152;2023-08-20T01:10:29;8.77;;;7.25;;
12296;SDS011;6211;49.124;9.152;2023-08-20T01:12:57;9.27;;;8.15;;
12296;SDS011;6211;49.124;9.152;2023-08-20T01:15:24;8.15;;;7.03;;
12296;SDS011;6211;49.124;9.152;2023-08-20T01:17:51;8.75;;;7.40;;
12296;SDS011;6211;49.124;9.152;2023-08-20T01:20:18;9.05;;;7.07;;
12296;SDS011;6211;49.124;9.152;2023-08-20T01:23:06;9.48;;;7.03;;
12296;SDS011;6211;49.124;9.152;2023-08-20T01:25:44;9.38;;;7.03;;
12296;SDS011;6211;49.124;9.152;2023-08-20T01:28:21;9.02;;;7.75;;
12296;SDS011;6211;49.124;9.152;2023-08-20T01:30:48;8.45;;;7.50;;
12296;SDS011;6211;49.124;9.152;2023-08-20T01:33:17;9.65;;;7.25;;
12296;SDS011;6211;49.124;9.152;2023-08-20T01:38:20;8.68;;;7.68;;
12296;SDS011;6211;49.124;9.152;2023-08-20T01:40:47;9.90;;;7.80;;
12296;SDS011;6211;49.124;9.152;2023-08-20T01:43:14;8.60;;;7.65;;
12296;SDS011;6211;49.124;9.152;2023-08-20T01:45:43;9.40;;;7.68;;
12296;SDS011;6211;49.124;9.152;2023-08-20T01:48:10;10.13;;;7.32;;
12296;SDS011;6211;49.124;9.152;2023-08-20T01:50:37;9.80;;;8.38;;
12296;SDS011;6211;49.124;9.152;2023-08-20T01:53:05;8.30;;;7.22;;
12296;SDS011;6211;49.124;9.152;2023-08-20T01:55:32;11.00;;;8.30;;
12296;SDS011;6211;49.124;9.152;2023-08-20T01:57:59;11.27;;;7.93;;
12296;SDS011;6211;49.124;9.152;2023-08-20T02:00:26;10.75;;;8.20;;
12296;SDS011;6211;49.124;9.152;2023-08-20T02:02:56;9.23;;;7.82;;
12296;SDS011;6211;49.124;9.152;2023-08-20T02:05:23;9.43;;;7.43;;
12296;SDS011;6211;49.124;9.152;2023-08-20T02:07:51;9.88;;;7.25;;
12296;SDS011;6211;49.124;9.152;2023-08-20T02:10:18;10.70;;;7.45;;
12296;SDS011;6211;49.124;9.152;2023-08-20T02:12:46;8.48;;;7.60;;
12296;SDS011;6211;49.124;9.152;2023-08-20T02:15:13;9.60;;;7.38;;
12296;SDS011;6211;49.124;9.152;2023-08-20T02:17:40;8.38;;;7.18;;
12296;SDS011;6211;49.124;9.152;2023-08-20T02:20:09;8.75;;;7.47;;
12296;SDS011;6211;49.124;9.152;2023-08-20T02:22:36;10.02;;;7.57;;
12296;SDS011;6211;49.124;9.152;2023-08-20T02:25:03;9.57;;;8.05;;
12296;SDS011;6211;49.124;9.152;2023-08-20T02:27:30;8.20;;;7.30;;
12296;SDS011;6211;49.124;9.152;2023-08-20T02:29:58;10.40;;;8.02;;
12296;SDS011;6211;49.124;9.152;2023-08-20T02:32:25;9.45;;;8.30;;
12296;SDS011;6211;49.124;9.152;2023-08-20T02:34:52;10.30;;;8.45;;
12296;SDS011;6211;49.124;9.152;2023-08-20T02:37:21;9.95;;;8.57;;
12296;SDS011;6211;49.124;9.152;2023-08-20T02:39:48;9.13;;;7.82;;
12296;SDS011;6211;49.124;9.152;2023-08-20T02:42:15;11.60;;;9.13;;
12296;SDS011;6211;49.124;9.152;2023-08-20T02:44:42;8.80;;;7.90;;
12296;SDS011;6211;49.124;9.152;2023-08-20T02:47:09;9.02;;;7.68;;
12296;SDS011;6211;49.124;9.152;2023-08-20T02:49:36;13.23;;;8.57;;
12296;SDS011;6211;49.124;9.152;2023-08-20T02:52:03;10.13;;;8.48;;
12296;SDS011;6211;49.124;9.152;2023-08-20T02:54:32;12.00;;;7.72;;
12296;SDS011;6211;49.124;9.152;2023-08-20T02:56:59;9.75;;;8.75;;
12296;SDS011;6211;49.124;9.152;2023-08-20T02:59:26;11.07;;;8.90;;
12296;SDS011;6211;49.124;9.152;2023-08-20T03:01:53;10.88;;;9.07;;
12296;SDS011;6211;49.124;9.152;2023-08-20T03:04:20;9.95;;;8.55;;
12296;SDS011;6211;49.124;9.152;2023-08-20T03:06:47;9.98;;;8.40;;
12296;SDS011;6211;49.124;9.152;2023-08-20T03:09:14;13.32;;;9.23;;
12296;SDS011;6211;49.124;9.152;2023-08-20T03:11:43;10.23;;;8.43;;
12296;SDS011;6211;49.124;9.152;2023-08-20T03:14:10;11.57;;;9.57;;
12296;SDS011;6211;49.124;9.152;2023-08-20T03:16:37;13.50;;;9.25;;
12296;SDS011;6211;49.124;9.152;2023-08-20T03:19:04;12.60;;;10.10;;
12296;SDS011;6211;49.124;9.152;2023-08-20T03:21:31;10.88;;;9.00;;
12296;SDS011;6211;49.124;9.152;2023-08-20T03:23:58;13.45;;;9.68;;
12296;SDS011;6211;49.124;9.152;2023-08-20T03:26:25;10.82;;;9.48;;
12296;SDS011;6211;49.124;9.152;2023-08-20T03:28:54;12.02;;;9.27;;
12296;SDS011;6211;49.124;9.152;2023-08-20T03:31:21;13.02;;;9.07;;
12296;SDS011;6211;49.124;9.152;2023-08-20T03:33:47;9.50;;;8.45;;
12296;SDS011;6211;49.124;9.152;2023-08-20T03:36:15;12.05;;;8.55;;
12296;SDS011;6211;49.124;9.152;2023-08-20T03:38:42;11.35;;;9.07;;
12296;SDS011;6211;49.124;9.152;2023-08-20T03:41:09;10.27;;;8.85;;
12296;SDS011;6211;49.124;9.152;2023-08-20T03:43:36;10.70;;;8.57;;
12296;SDS011;6211;49.124;9.152;2023-08-20T03:46:05;11.20;;;8.98;;
12296;SDS011;6211;49.124;9.152;2023-08-20T03:48:32;12.65;;;9.00;;
12296;SDS011;6211;49.124;9.152;2023-08-20T03:50:59;11.30;;;8.50;;
12296;SDS011;6211;49.124;9.152;2023-08-20T03:53:26;12.32;;;9.10;;
12296;SDS011;6211;49.124;9.152;2023-08-20T03:55:53;13.05;;;9.10;;
12296;SDS011;6211;49.124;9.152;2023-08-20T03:58:20;10.50;;;9.18;;
12296;SDS011;6211;49.124;9.152;2023-08-20T04:00:47;11.27;;;8.30;;
12296;SDS011;6211;49.124;9.152;2023-08-20T04:03:16;10.23;;;8.63;;
12296;SDS011;6211;49.124;9.152;2023-08-20T04:05:44;11.02;;;9.15;;
12296;SDS011;6211;49.124;9.152;2023-08-20T04:08:11;15.23;;;9.15;;
12296;SDS011;6211;49.124;9.152;2023-08-20T04:10:42;9.63;;;8.60;;
12296;SDS011;6211;49.124;9.152;2023-08-20T04:13:09;9.88;;;8.32;;
12296;SDS011;6211;49.124;9.152;2023-08-20T04:15:36;11.02;;;8.38;;
12296;SDS011;6211;49.124;9.152;2023-08-20T04:18:04;11.77;;;9.57;;
12296;SDS011;6211;49.124;9.152;2023-08-20T04:20:32;10.07;;;9.05;;
12296;SDS011;6211;49.124;9.152;2023-08-20T04:22:59;11.63;;;9.15;;
12296;SDS011;6211;49.124;9.152;2023-08-20T04:25:26;11.70;;;9.32;;
12296;SDS011;6211;49.124;9.152;2023-08-20T04:27:53;14.20;;;9.50;;
12296;SDS011;6211;49.124;9.152;2023-08-20T04:30:20;11.88;;;9.68;;
12296;SDS011;6211;49.124;9.152;2023-08-20T04:32:48;14.35;;;10.02;;
12296;SDS011;6211;49.124;9.152;2023-08-20T04:35:15;12.50;;;9.85;;
12296;SDS011;6211;49.124;9.152;2023-08-20T04:37:43;11.65;;;9.90;;
12296;SDS011;6211;49.124;9.152;2023-08-20T04:40:10;12.65;;;10.32;;
12296;SDS011;6211;49.124;9.152;2023-08-20T04:42:38;12.70;;;10.52;;
12296;SDS011;6211;49.124;9.152;2023-08-20T04:45:05;13.63;;;9.73;;
12296;SDS011;6211;49.124;9.152;2023-08-20T04:47:33;13.32;;;10.45;;
12296;SDS011;6211;49.124;9.152;2023-08-20T04:50:00;13.07;;;10.15;;
12296;SDS011;6211;49.124;9.152;2023-08-20T04:52:27;13.27;;;10.32;;
12296;SDS011;6211;49.124;9.152;2023-08-20T04:54:55;12.15;;;10.15;;
12296;SDS011;6211;49.124;9.152;2023-08-20T04:57:22;10.63;;;9.43;;
12296;SDS011;6211;49.124;9.152;2023-08-20T04:59:50;12.35;;;9.98;;
12296;SDS011;6211;49.124;9.152;2023-08-20T05:02:17;11.63;;;9.73;;
12296;SDS011;6211;49.124;9.152;2023-08-20T05:04:44;14.57;;;11.02;;
12296;SDS011;6211;49.124;9.152;2023-08-20T05:07:11;14.27;;;11.00;;
12296;SDS011;6211;49.124;9.152;2023-08-20T05:09:39;14.90;;;11.68;;
12296;SDS011;6211;49.124;9.152;2023-08-20T05:12:08;15.50;;;11.48;;
12296;SDS011;6211;49.124;9.152;2023-08-20T05:14:35;16.63;;;12.10;;
12296;SDS011;6211;49.124;9.152;2023-08-20T05:17:02;15.25;;;11.40;;
12296;SDS011;6211;49.124;9.152;2023-08-20T05:19:29;17.85;;;12.13;;
12296;SDS011;6211;49.124;9.152;2023-08-20T05:21:56;13.98;;;11.00;;
12296;SDS011;6211;49.124;9.152;2023-08-20T05:24:24;16.25;;;11.38;;
12296;SDS011;6211;49.124;9.152;2023-08-20T05:27:03;13.02;;;11.07;;
12296;SDS011;6211;49.124;9.152;2023-08-20T05:29:31;15.27;;;10.32;;
12296;SDS011;6211;49.124;9.152;2023-08-20T05:31:59;14.70;;;11.00;;
12296;SDS011;6211;49.124;9.152;2023-08-20T05:34:26;11.98;;;9.82;;
12296;SDS011;6211;49.124;9.152;2023-08-20T05:36:53;10.65;;;9.23;;
12296;SDS011;6211;49.124;9.152;2023-08-20T05:39:20;11.50;;;9.18;;
12296;SDS011;6211;49.124;9.152;2023-08-20T05:41:48;11.80;;;9.80;;
12296;SDS011;6211;49.124;9.152;2023-08-20T05:44:15;11.88;;;10.00;;
12296;SDS011;6211;49.124;9.152;2023-08-20T05:46:44;11.60;;;9.52;;
12296;SDS011;6211;49.124;9.152;2023-08-20T05:49:11;11.02;;;9.60;;
12296;SDS011;6211;49.124;9.152;2023-08-20T05:51:40;13.80;;;9.52;;
12296;SDS011;6211;49.124;9.152;2023-08-20T05:54:08;11.02;;;9.38;;
12296;SDS011;6211;49.124;9.152;2023-08-20T05:56:35;10.63;;;9.00;;
12296;SDS011;6211;49.124;9.152;2023-08-20T05:59:02;11.43;;;9.32;;
12296;SDS011;6211;49.124;9.152;2023-08-20T06:01:29;10.45;;;9.02;;
12296;SDS011;6211;49.124;9.152;2023-08-20T06:03:57;10.63;;;8.48;;
12296;SDS011;6211;49.124;9.152;2023-08-20T06:06:26;11.73;;;7.90;;
12296;SDS011;6211;49.124;9.152;2023-08-20T06:08:53;9.15;;;8.23;;
12296;SDS011;6211;49.124;9.152;2023-08-20T06:11:20;10.88;;;8.32;;
12296;SDS011;6211;49.124;9.152;2023-08-20T06:13:47;10.57;;;8.82;;
12296;SDS011;6211;49.124;9.152;2023-08-20T06:16:14;10.77;;;9.35;;
12296;SDS011;6211;49.124;9.152;2023-08-20T06:18:41;7.95;;;6.70;;
12296;SDS011;6211;49.124;9.152;2023-08-20T06:21:10;8.40;;;7.50;;
12296;SDS011;6211;49.124;9.152;2023-08-20T06:23:38;8.05;;;6.95;;
12296;SDS011;6211;49.124;9.152;2023-08-20T06:26:05;8.05;;;7.10;;
12296;SDS011;6211;49.124;9.152;2023-08-20T06:28:32;10.35;;;7.97;;
12296;SDS011;6211;49.124;9.152;2023-08-20T06:30:59;9.52;;;7.75;;
12296;SDS011;6211;49.124;9.152;2023-08-20T06:33:26;8.00;;;7.20;;
12296;SDS011;6211;49.124;9.152;2023-08-20T06:35:53;8.88;;;7.50;;
12296;SDS011;6211;49.124;9.152;2023-08-20T06:38:21;8.38;;;7.47;;
12296;SDS011;6211;49.124;9.152;2023-08-20T06:40:49;7.90;;;7.07;;
12296;SDS011;6211;49.124;9.152;2023-08-20T06:43:16;9.40;;;7.40;;
12296;SDS011;6211;49.124;9.152;2023-08-20T06:45:43;8.40;;;7.50;;
12296;SDS011;6211;49.124;9.152;2023-08-20T06:48:11;9.45;;;7.55;;
12296;SDS011;6211;49.124;9.152;2023-08-20T06:50:38;9.65;;;7.47;;
12296;SDS011;6211;49.124;9.152;2023-08-20T06:53:05;10.23;;;8.00;;
12296;SDS011;6211;49.124;9.152;2023-08-20T06:55:33;8.25;;;7.32;;
12296;SDS011;6211;49.124;9.152;2023-08-20T06:58:01;9.65;;;7.30;;
12296;SDS011;6211;49.124;9.152;2023-08-20T07:00:28;8.68;;;7.55;;
12296;SDS011;6211;49.124;9.152;2023-08-20T07:02:55;9.75;;;7.53;;
12296;SDS011;6211;49.124;9.152;2023-08-20T07:05:22;9.00;;;7.22;;
12296;SDS011;6211;49.124;9.152;2023-08-20T07:07:49;8.30;;;7.25;;
12296;SDS011;6211;49.124;9.152;2023-08-20T07:10:17;8.43;;;7.18;;
12296;SDS011;6211;49.124;9.152;2023-08-20T07:12:45;8.25;;;7.38;;
12296;SDS011;6211;49.124;9.152;2023-08-20T07:15:12;9.73;;;7.00;;
12296;SDS011;6211;49.124;9.152;2023-08-20T07:17:39;8.50;;;7.60;;
12296;SDS011;6211;49.124;9.152;2023-08-20T07:20:07;9.90;;;6.85;;
12296;SDS011;6211;49.124;9.152;2023-08-20T07:22:34;8.25;;;6.82;;
12296;SDS011;6211;49.124;9.152;2023-08-20T07:25:01;9.75;;;7.18;;
12296;SDS011;6211;49.124;9.152;2023-08-20T07:27:28;8.68;;;6.70;;
12296;SDS011;6211;49.124;9.152;2023-08-20T07:29:57;7.88;;;6.60;;
12296;SDS011;6211;49.124;9.152;2023-08-20T07:32:24;8.77;;;6.68;;
12296;SDS011;6211;49.124;9.152;2023-08-20T07:34:51;9.27;;;6.63;;
12296;SDS011;6211;49.124;9.152;2023-08-20T07:37:18;9.38;;;6.60;;
12296;SDS011;6211;49.124;9.152;2023-08-20T07:39:45;7.95;;;6.55;;
12296;SDS011;6211;49.124;9.152;2023-08-20T07:42:12;8.13;;;7.03;;
12296;SDS011;6211;49.124;9.152;2023-08-20T07:44:39;8.05;;;7.25;;
12296;SDS011;6211;49.124;9.152;2023-08-20T07:47:08;7.22;;;6.53;;
12296;SDS011;6211;49.124;9.152;2023-08-20T07:49:35;7.80;;;6.80;;
12296;SDS011;6211;49.124;9.152;2023-08-20T07:52:02;11.52;;;7.05;;
12296;SDS011;6211;49.124;9.152;2023-08-20T07:54:29;8.38;;;6.97;;
12296;SDS011;6211;49.124;9.152;2023-08-20T07:56:56;8.40;;;7.00;;
12296;SDS011;6211;49.124;9.152;2023-08-20T07:59:23;8.65;;;6.55;;
12296;SDS011;6211;49.124;9.152;2023-08-20T08:01:50;9.45;;;7.07;;
12296;SDS011;6211;49.124;9.152;2023-08-20T08:04:19;9.15;;;7.07;;
12296;SDS011;6211;49.124;9.152;2023-08-20T08:06:46;8.63;;;7.25;;
12296;SDS011;6211;49.124;9.152;2023-08-20T08:09:17;6.70;;;6.03;;
12296;SDS011;6211;49.124;9.152;2023-08-20T08:11:45;8.55;;;7.35;;
12296;SDS011;6211;49.124;9.152;2023-08-20T08:14:12;8.63;;;7.82;;
12296;SDS011;6211;49.124;9.152;2023-08-20T08:16:39;7.32;;;6.63;;
12296;SDS011;6211;49.124;9.152;2023-08-20T08:19:07;7.65;;;6.90;;
12296;SDS011;6211;49.124;9.152;2023-08-20T08:21:35;6.38;;;5.72;;
12296;SDS011;6211;49.124;9.152;2023-08-20T08:24:02;7.70;;;6.90;;
12296;SDS011;6211;49.124;9.152;2023-08-20T08:26:30;8.80;;;7.05;;
12296;SDS011;6211;49.124;9.152;2023-08-20T08:28:57;9.07;;;6.07;;
12296;SDS011;6211;49.124;9.152;2023-08-20T08:31:24;9.15;;;6.55;;
12296;SDS011;6211;49.124;9.152;2023-08-20T08:33:51;8.10;;;7.10;;
12296;SDS011;6211;49.124;9.152;2023-08-20T08:36:18;8.32;;;6.90;;
12296;SDS011;6211;49.124;9.152;2023-08-20T08:38:47;9.50;;;6.10;;
12296;SDS011;6211;49.124;9.152;2023-08-20T08:41:14;7.13;;;6.43;;
12296;SDS011;6211;49.124;9.152;2023-08-20T08:43:41;7.97;;;5.97;;
12296;SDS011;6211;49.124;9.152;2023-08-20T08:46:13;7.00;;;6.35;;
12296;SDS011;6211;49.124;9.152;2023-08-20T08:48:40;7.75;;;6.25;;
12296;SDS011;6211;49.124;9.152;2023-08-20T08:51:08;8.55;;;6.40;;
12296;SDS011;6211;49.124;9.152;2023-08-20T08:53:35;8.75;;;6.57;;
12296;SDS011;6211;49.124;9.152;2023-08-20T08:56:04;6.88;;;5.65;;
12296;SDS011;6211;49.124;9.152;2023-08-20T08:58:32;6.97;;;6.05;;
12296;SDS011;6211;49.124;9.152;2023-08-20T09:00:59;6.30;;;5.55;;
12296;SDS011;6211;49.124;9.152;2023-08-20T09:03:27;7.13;;;6.43;;
12296;SDS011;6211;49.124;9.152;2023-08-20T09:05:54;6.72;;;6.07;;
12296;SDS011;6211;49.124;9.152;2023-08-20T09:08:22;6.50;;;5.90;;
12296;SDS011;6211;49.124;9.152;2023-08-20T09:10:50;6.20;;;5.57;;
12296;SDS011;6211;49.124;9.152;2023-08-20T09:13:18;6.70;;;5.57;;
12296;SDS011;6211;49.124;9.152;2023-08-20T09:15:50;7.50;;;5.13;;
12296;SDS011;6211;49.124;9.152;2023-08-20T09:18:17;6.13;;;5.63;;
12296;SDS011;6211;49.124;9.152;2023-08-20T09:20:44;7.70;;;6.03;;
12296;SDS011;6211;49.124;9.152;2023-08-20T09:23:11;6.75;;;5.70;;
12296;SDS011;6211;49.124;9.152;2023-08-20T09:25:39;10.13;;;5.80;;
12296;SDS011;6211;49.124;9.152;2023-08-20T09:28:06;6.68;;;5.40;;
12296;SDS011;6211;49.124;9.152;2023-08-20T09:30:35;5.95;;;5.38;;
12296;SDS011;6211;49.124;9.152;2023-08-20T09:33:04;6.40;;;4.90;;
12296;SDS011;6211;49.124;9.152;2023-08-20T09:35:32;5.35;;;4.82;;
12296;SDS011;6211;49.124;9.152;2023-08-20T09:37:59;5.45;;;4.95;;
12296;SDS011;6211;49.124;9.152;2023-08-20T09:40:26;6.63;;;4.90;;
12296;SDS011;6211;49.124;9.152;2023-08-20T09:42:54;7.15;;;5.45;;
12296;SDS011;6211;49.124;9.152;2023-08-20T09:45:21;8.48;;;5.40;;
12296;SDS011;6211;49.124;9.152;2023-08-20T09:47:49;5.78;;;5.20;;
12296;SDS011;6211;49.124;9.152;2023-08-20T09:50:21;5.82;;;5.22;;
12296;SDS011;6211;49.124;9.152;2023-08-20T09:52:51;6.28;;;4.72;;
12296;SDS011;6211;49.124;9.152;2023-08-20T09:55:21;5.93;;;5.28;;
12296;SDS011;6211;49.124;9.152;2023-08-20T09:57:48;6.32;;;5.55;;
12296;SDS011;6211;49.124;9.152;2023-08-20T10:00:16;5.72;;;5.22;;
12296;SDS011;6211;49.124;9.152;2023-08-20T10:02:43;5.13;;;4.53;;
12296;SDS011;6211;49.124;9.152;2023-08-20T10:05:12;4.97;;;4.57;;
12296;SDS011;6211;49.124;9.152;2023-08-20T10:07:40;6.47;;;5.00;;
12296;SDS011;6211;49.124;9.152;2023-08-20T10:10:09;7.20;;;5.03;;
12296;SDS011;6211;49.124;9.152;2023-08-20T10:12:38;5.22;;;4.68;;
12296;SDS011;6211;49.124;9.152;2023-08-20T10:15:06;6.18;;;4.72;;
12296;SDS011;6211;49.124;9.152;2023-08-20T10:17:34;4.90;;;4.50;;
12296;SDS011;6211;49.124;9.152;2023-08-20T10:20:02;4.63;;;4.20;;
12296;SDS011;6211;49.124;9.152;2023-08-20T10:22:35;5.80;;;4.65;;
12296;SDS011;6211;49.124;9.152;2023-08-20T10:25:05;4.50;;;4.10;;
12296;SDS011;6211;49.124;9.152;2023-08-20T10:27:33;4.53;;;3.85;;
12296;SDS011;6211;49.124;9.152;2023-08-20T10:30:00;4.95;;;3.80;;
12296;SDS011;6211;49.124;9.152;2023-08-20T10:32:43;4.47;;;4.05;;
12296;SDS011;6211;49.124;9.152;2023-08-20T10:35:10;5.45;;;4.15;;
12296;SDS011;6211;49.124;9.152;2023-08-20T10:37:38;4.78;;;3.90;;
12296;SDS011;6211;49.124;9.152;2023-08-20T10:40:06;4.28;;;3.72;;
12296;SDS011;6211;49.124;9.152;2023-08-20T10:42:34;4.95;;;4.00;;
12296;SDS011;6211;49.124;9.152;2023-08-20T10:45:06;6.43;;;4.05;;
12296;SDS011;6211;49.124;9.152;2023-08-20T10:47:35;3.83;;;3.53;;
12296;SDS011;6211;49.124;9.152;2023-08-20T10:50:02;4.75;;;3.70;;
12296;SDS011;6211;49.124;9.152;2023-08-20T10:52:30;4.43;;;4.03;;
12296;SDS011;6211;49.124;9.152;2023-08-20T10:54:58;3.65;;;3.35;;
12296;SDS011;6211;49.124;9.152;2023-08-20T10:57:32;4.45;;;4.05;;
12296;SDS011;6211;49.124;9.152;2023-08-20T11:00:00;5.43;;;4.28;;
12296;SDS011;6211;49.124;9.152;2023-08-20T11:02:31;4.55;;;3.95;;
12296;SDS011;6211;49.124;9.152;2023-08-20T11:05:00;4.63;;;4.22;;
12296;SDS011;6211;49.124;9.152;2023-08-20T11:07:29;4.32;;;3.78;;
12296;SDS011;6211;49.124;9.152;2023-08-20T11:09:57;4.15;;;3.85;;
12296;SDS011;6211;49.124;9.152;2023-08-20T11:12:25;5.43;;;4.00;;
12296;SDS011;6211;49.124;9.152;2023-08-20T11:14:52;4.75;;;4.25;;
12296;SDS011;6211;49.124;9.152;2023-08-20T11:17:21;5.05;;;3.83;;
12296;SDS011;6211;49.124;9.152;2023-08-20T11:19:48;4.72;;;4.30;;
12296;SDS011;6211;49.124;9.152;2023-08-20T11:22:15;4.32;;;3.70;;
12296;SDS011;6211;49.124;9.152;2023-08-20T11:24:43;3.72;;;3.42;;
12296;SDS011;6211;49.124;9.152;2023-08-20T11:27:10;3.80;;;3.50;;
12296;SDS011;6211;49.124;9.152;2023-08-20T11:29:42;7.13;;;3.70;;
12296;SDS011;6211;49.124;9.152;2023-08-20T11:32:09;4.53;;;3.78;;
12296;SDS011;6211;49.124;9.152;2023-08-20T11:34:37;3.95;;;3.65;;
12296;SDS011;6211;49.124;9.152;2023-08-20T11:37:04;4.63;;;4.05;;
12296;SDS011;6211;49.124;9.152;2023-08-20T11:39:31;5.38;;;3.88;;
12296;SDS011;6211;49.124;9.152;2023-08-20T11:41:58;5.07;;;3.88;;
12296;SDS011;6211;49.124;9.152;2023-08-20T11:44:26;3.72;;;3.42;;
12296;SDS011;6211;49.124;9.152;2023-08-20T11:46:55;4.25;;;3.85;;
12296;SDS011;6211;49.124;9.152;2023-08-20T11:49:28;5.43;;;4.03;;
12296;SDS011;6211;49.124;9.152;2023-08-20T11:51:55;4.28;;;3.88;;
12296;SDS011;6211;49.124;9.152;2023-08-20T11:54:22;4.25;;;3.67;;
12296;SDS011;6211;49.124;9.152;2023-08-20T11:56:51;3.88;;;3.53;;
12296;SDS011;6211;49.124;9.152;2023-08-20T11:59:19;4.10;;;3.70;;
12296;SDS011;6211;49.124;9.152;2023-08-20T12:01:50;3.40;;;3.10;;
12296;SDS011;6211;49.124;9.152;2023-08-20T12:04:22;4.35;;;4.05;;
12296;SDS011;6211;49.124;9.152;2023-08-20T12:07:00;4.13;;;3.40;;
12296;SDS011;6211;49.124;9.152;2023-08-20T12:09:29;4.10;;;3.50;;
12296;SDS011;6211;49.124;9.152;2023-08-20T12:11:56;3.28;;;3.08;;
12296;SDS011;6211;49.124;9.152;2023-08-20T12:14:23;4.18;;;3.60;;
12296;SDS011;6211;49.124;9.152;2023-08-20T12:16:51;4.00;;;3.40;;
12296;SDS011;6211;49.124;9.152;2023-08-20T12:19:19;4.25;;;3.58;;
12296;SDS011;6211;49.124;9.152;2023-08-20T12:21:46;3.80;;;3.50;;
12296;SDS011;6211;49.124;9.152;2023-08-20T12:24:14;3.55;;;3.25;;
12296;SDS011;6211;49.124;9.152;2023-08-20T12:26:41;3.22;;;3.03;;
12296;SDS011;6211;49.124;9.152;2023-08-20T12:29:08;3.90;;;3.50;;
12296;SDS011;6211;49.124;9.152;2023-08-20T12:31:35;3.58;;;3.28;;
12296;SDS011;6211;49.124;9.152;2023-08-20T12:34:03;3.22;;;2.92;;
12296;SDS011;6211;49.124;9.152;2023-08-20T12:36:31;3.97;;;3.13;;
12296;SDS011;6211;49.124;9.152;2023-08-20T12:38:58;3.40;;;3.10;;
12296;SDS011;6211;49.124;9.152;2023-08-20T12:41:25;3.60;;;3.30;;
12296;SDS011;6211;49.124;9.152;2023-08-20T12:43:52;3.38;;;3.08;;
12296;SDS011;6211;49.124;9.152;2023-08-20T12:46:20;3.35;;;3.03;;
12296;SDS011;6211;49.124;9.152;2023-08-20T12:48:47;3.42;;;2.70;;
12296;SDS011;6211;49.124;9.152;2023-08-20T12:51:14;4.53;;;3.17;;
12296;SDS011;6211;49.124;9.152;2023-08-20T12:53:43;3.28;;;2.58;;
12296;SDS011;6211;49.124;9.152;2023-08-20T12:56:10;2.88;;;2.70;;
12296;SDS011;6211;49.124;9.152;2023-08-20T12:58:38;3.35;;;3.05;;
12296;SDS011;6211;49.124;9.152;2023-08-20T13:01:05;3.45;;;3.20;;
12296;SDS011;6211;49.124;9.152;2023-08-20T13:03:32;4.35;;;3.03;;
12296;SDS011;6211;49.124;9.152;2023-08-20T13:06:00;3.85;;;3.08;;
12296;SDS011;6211;49.124;9.152;2023-08-20T13:08:27;2.95;;;2.75;;
12296;SDS011;6211;49.124;9.152;2023-08-20T13:10:57;5.75;;;3.10;;
12296;SDS011;6211;49.124;9.152;2023-08-20T13:13:24;4.07;;;2.92;;
12296;SDS011;6211;49.124;9.152;2023-08-20T13:15:52;3.42;;;3.13;;
12296;SDS011;6211;49.124;9.152;2023-08-20T13:18:19;3.22;;;3.03;;
12296;SDS011;6211;49.124;9.152;2023-08-20T13:20:49;3.83;;;2.90;;
12296;SDS011;6211;49.124;9.152;2023-08-20T13:23:16;8.05;;;5.93;;
12296;SDS011;6211;49.124;9.152;2023-08-20T13:25:43;3.10;;;2.90;;
12296;SDS011;6211;49.124;9.152;2023-08-20T13:28:12;3.85;;;2.97;;
12296;SDS011;6211;49.124;9.152;2023-08-20T13:30:39;3.15;;;2.95;;
12296;SDS011;6211;49.124;9.152;2023-08-20T13:33:06;4.00;;;3.60;;
12296;SDS011;6211;49.124;9.152;2023-08-20T13:35:33;2.83;;;2.63;;
12296;SDS011;6211;49.124;9.152;2023-08-20T13:38:01;3.15;;;2.88;;
12296;SDS011;6211;49.124;9.152;2023-08-20T13:40:29;3.60;;;3.40;;
12296;SDS011;6211;49.124;9.152;2023-08-20T13:42:56;3.50;;;3.20;;
12296;SDS011;6211;49.124;9.152;2023-08-20T13:45:25;5.00;;;3.10;;
12296;SDS011;6211;49.124;9.152;2023-08-20T13:47:52;2.75;;;2.58;;
12296;SDS011;6211;49.124;9.152;2023-08-20T13:50:19;3.20;;;2.90;;
12296;SDS011;6211;49.124;9.152;2023-08-20T13:52:46;2.85;;;2.65;;
12296;SDS011;6211;49.124;9.152;2023-08-20T13:55:13;2.80;;;2.60;;
12296;SDS011;6211;49.124;9.152;2023-08-20T13:57:40;3.40;;;3.10;;
12296;SDS011;6211;49.124;9.152;2023-08-20T14:00:08;5.78;;;3.10;;
12296;SDS011;6211;49.124;9.152;2023-08-20T14:02:38;4.28;;;3.50;;
12296;SDS011;6211;49.124;9.152;2023-08-20T14:05:05;3.22;;;2.85;;
12296;SDS011;6211;49.124;9.152;2023-08-20T14:07:32;3.38;;;3.08;;
12296;SDS011;6211;49.124;9.152;2023-08-20T14:09:59;3.15;;;2.95;;
12296;SDS011;6211;49.124;9.152;2023-08-20T14:12:27;3.17;;;2.90;;
12296;SDS011;6211;49.124;9.152;2023-08-20T14:14:55;2.85;;;2.65;;
12296;SDS011;6211;49.124;9.152;2023-08-20T14:17:22;3.03;;;2.80;;
12296;SDS011;6211;49.124;9.152;2023-08-20T14:19:50;2.50;;;2.38;;
12296;SDS011;6211;49.124;9.152;2023-08-20T14:22:17;3.15;;;2.85;;
12296;SDS011;6211;49.124;9.152;2023-08-20T14:24:45;3.15;;;2.85;;
12296;SDS011;6211;49.124;9.152;2023-08-20T14:27:12;3.33;;;2.95;;
12296;SDS011;6211;49.124;9.152;2023-08-20T14:29:40;3.30;;;3.00;;
12296;SDS011;6211;49.124;9.152;2023-08-20T14:32:07;3.67;;;3.08;;
12296;SDS011;6211;49.124;9.152;2023-08-20T14:34:34;3.17;;;2.97;;
12296;SDS011;6211;49.124;9.152;2023-08-20T14:37:03;3.97;;;3.25;;
12296;SDS011;6211;49.124;9.152;2023-08-20T14:39:30;2.80;;;2.60;;
12296;SDS011;6211;49.124;9.152;2023-08-20T14:41:57;3.28;;;2.97;;
12296;SDS011;6211;49.124;9.152;2023-08-20T14:44:24;2.88;;;2.67;;
12296;SDS011;6211;49.124;9.152;2023-08-20T14:46:51;5.72;;;3.83;;
12296;SDS011;6211;49.124;9.152;2023-08-20T14:49:19;2.95;;;2.72;;
12296;SDS011;6211;49.124;9.152;2023-08-20T14:51:46;3.05;;;2.83;;
12296;SDS011;6211;49.124;9.152;2023-08-20T14:54:14;3.13;;;2.90;;
12296;SDS011;6211;49.124;9.152;2023-08-20T14:56:41;3.25;;;3.00;;
12296;SDS011;6211;49.124;9.152;2023-08-20T14:59:09;3.35;;;3.10;;
12296;SDS011;6211;49.124;9.152;2023-08-20T15:01:36;3.65;;;2.88;;
12296;SDS011;6211;49.124;9.152;2023-08-20T15:04:03;4.32;;;2.83;;